Time;durP1;ratioP1;P1;durP2;ratioP2;P2;SDS_P1;SDS_P2;PMS_P1;PMS_P2;Temp;Humidity;BMP_temperature;BMP_pressure;BME280_temperature;BME280_humidity;BME280_pressure;Samples;Min_cycle;Max_cycle;Signal;HPM_P1;HPM_P2
2024/02/05 00:01:57;;;;;;;0.60;0.20;;;;;;;-141.50;100.00;63355.56;5115252;28;20051;-80
2024/02/05 00:04:27;;;;;;;0.10;0.10;;;;;;;-141.50;100.00;63355.56;5105228;28;20052;-81
2024/02/05 00:06:54;;;;;;;0.38;0.30;;;;;;;-141.50;100.00;63355.56;5109187;28;20055;-81
2024/02/05 00:09:20;;;;;;;0.30;0.20;;;;;;;-141.50;100.00;63355.56;5094210;28;20059;-80
2024/02/05 00:11:47;;;;;;;0.43;0.22;;;;;;;-141.50;100.00;63355.56;5100282;28;20058;-80
2024/02/05 00:14:14;;;;;;;0.20;0.20;;;;;;;-141.50;100.00;63355.56;5114520;28;20116;-80
2024/02/05 00:16:41;;;;;;;0.20;0.10;;;;;;;-141.50;100.00;63355.56;5097331;28;20070;-80
2024/02/05 00:19:08;;;;;;;0.20;0.10;;;;;;;-141.50;100.00;63355.56;5116605;27;20067;-80
2024/02/05 00:21:35;;;;;;;1.02;0.10;;;;;;;-141.50;100.00;63355.56;5116661;27;20059;-82
2024/02/05 00:24:03;;;;;;;0.10;0.10;;;;;;;-141.50;100.00;63355.56;5117288;27;20071;-81
2024/02/05 00:26:30;;;;;;;0.17;0.10;;;;;;;-141.50;100.00;63355.56;5106068;28;20055;-79
2024/02/05 00:28:57;;;;;;;0.20;0.20;;;;;;;-141.50;100.00;63355.56;5088114;27;20051;-80
2024/02/05 00:31:24;;;;;;;0.28;0.20;;;;;;;-141.50;100.00;63355.56;5089525;28;20095;-81
2024/02/05 00:33:51;;;;;;;0.22;0.10;;;;;;;-141.50;100.00;63355.56;5106774;28;20156;-81
2024/02/05 00:36:18;;;;;;;0.20;0.13;;;;;;;-141.50;100.00;63355.56;5110480;27;20123;-80
2024/02/05 00:38:45;;;;;;;0.38;0.20;;;;;;;-141.50;100.00;63355.56;5094512;28;20490;-81
2024/02/05 00:41:11;;;;;;;0.47;0.17;;;;;;;-141.50;100.00;63355.56;5109852;28;20521;-80
2024/02/05 00:43:38;;;;;;;0.30;0.10;;;;;;;-141.50;100.00;63355.56;5092805;28;20273;-81
2024/02/05 00:46:05;;;;;;;0.10;0.10;;;;;;;-141.50;100.00;63355.56;5083013;28;20051;-80
2024/02/05 00:48:32;;;;;;;2.28;0.10;;;;;;;-141.50;100.00;63355.56;5066940;28;20123;-80
2024/02/05 00:50:59;;;;;;;0.82;0.15;;;;;;;-141.50;100.00;63355.56;5098173;28;20279;-81
2024/02/05 00:53:25;;;;;;;0.17;0.10;;;;;;;-141.50;100.00;63355.56;5112853;28;20048;-80
2024/02/05 00:55:52;;;;;;;0.10;0.10;;;;;;;-141.50;100.00;63355.56;5080159;28;20062;-80
2024/02/05 00:58:19;;;;;;;0.10;0.10;;;;;;;-141.50;100.00;63355.56;5105646;28;20621;-80
2024/02/05 01:00:46;;;;;;;0.03;0.00;;;;;;;-141.50;100.00;63355.56;5093397;28;20090;-80
2024/02/05 01:03:13;;;;;;;1.30;0.10;;;;;;;-141.50;100.00;63355.56;5104815;28;20127;-80
2024/02/05 01:05:40;;;;;;;0.05;0.05;;;;;;;-141.50;100.00;63355.56;5107028;27;20532;-80
2024/02/05 01:08:08;;;;;;;0.50;0.20;;;;;;;-141.50;100.00;63355.56;5088768;28;20075;-81
2024/02/05 01:10:34;;;;;;;0.10;0.10;;;;;;;-141.50;100.00;63355.56;5093732;28;20044;-83
2024/02/05 01:13:01;;;;;;;0.13;0.10;;;;;;;-141.50;100.00;63355.56;5121557;28;20060;-78
2024/02/05 01:15:28;;;;;;;0.13;0.10;;;;;;;-141.50;100.00;63355.56;5087160;28;20047;-78
2024/02/05 01:17:55;;;;;;;0.10;0.10;;;;;;;-141.50;100.00;63355.56;5117784;28;20715;-79
2024/02/05 01:20:21;;;;;;;0.15;0.10;;;;;;;-141.50;100.00;63355.56;5120902;28;20071;-79
2024/02/05 01:22:50;;;;;;;0.05;0.00;;;;;;;-141.50;100.00;63355.56;5116560;28;20304;-81
2024/02/05 01:25:18;;;;;;;0.10;0.03;;;;;;;-141.50;100.00;63355.56;5120387;28;20056;-80
2024/02/05 01:27:45;;;;;;;0.10;0.10;;;;;;;-141.50;100.00;63355.56;5103902;28;20587;-80
2024/02/05 01:30:13;;;;;;;0.00;0.00;;;;;;;-141.50;100.00;63355.56;5118663;28;20055;-80
2024/02/05 01:32:41;;;;;;;0.10;0.00;;;;;;;-141.50;100.00;63355.56;5115871;28;20039;-80
2024/02/05 01:35:08;;;;;;;1.38;0.10;;;;;;;-141.50;100.00;63355.56;5119578;28;20059;-78
2024/02/05 01:37:35;;;;;;;0.00;0.00;;;;;;;-141.50;100.00;63355.56;5092903;28;20087;-76
2024/02/05 01:40:09;;;;;;;0.70;0.10;;;;;;;-141.50;100.00;63355.56;5085633;28;20056;-80
2024/02/05 01:42:38;;;;;;;0.20;0.10;;;;;;;-141.50;100.00;63355.56;5108569;28;20073;-79
2024/02/05 01:45:06;;;;;;;0.45;0.05;;;;;;;-141.50;100.00;63355.56;5086015;28;20522;-79
2024/02/05 01:47:34;;;;;;;0.08;0.00;;;;;;;-141.50;100.00;63355.56;5096267;28;20274;-79
2024/02/05 01:50:03;;;;;;;0.10;0.00;;;;;;;-141.50;100.00;63355.56;5109175;28;20138;-78
2024/02/05 01:52:33;;;;;;;0.00;0.00;;;;;;;-141.50;100.00;63355.56;5095323;28;20040;-79
2024/02/05 01:55:01;;;;;;;0.10;0.10;;;;;;;-141.50;100.00;63355.56;5114510;28;20056;-78
2024/02/05 01:57:28;;;;;;;0.20;0.10;;;;;;;-141.50;100.00;63355.56;5112639;28;20043;-79
2024/02/05 01:59:56;;;;;;;0.10;0.00;;;;;;;-141.50;100.00;63355.56;5111366;28;20093;-79
2024/02/05 02:02:23;;;;;;;0.28;0.10;;;;;;;-141.50;100.00;63355.56;5115005;28;20052;-78
2024/02/05 02:04:50;;;;;;;0.40;0.10;;;;;;;-141.50;100.00;63355.56;5121390;28;20051;-78
2024/02/05 02:07:17;;;;;;;0.10;0.00;;;;;;;-141.50;100.00;63355.56;5100303;28;20120;-79
2024/02/05 02:09:44;;;;;;;0.03;0.00;;;;;;;-141.50;100.00;63355.56;5098692;28;20130;-78
2024/02/05 02:12:11;;;;;;;0.10;0.03;;;;;;;-141.50;100.00;63355.56;5097524;28;20062;-81
2024/02/05 02:14:38;;;;;;;0.00;0.00;;;;;;;-141.50;100.00;63355.56;5113382;28;20048;-79
2024/02/05 02:17:05;;;;;;;0.08;0.00;;;;;;;-141.50;100.00;63355.56;5106987;28;20071;-78
2024/02/05 02:19:46;;;;;;;0.10;0.10;;;;;;;-141.50;100.00;63355.56;5093122;28;20048;-77
2024/02/05 02:22:32;;;;;;;0.00;0.00;;;;;;;-141.50;100.00;63355.56;5114566;28;20055;-78
2024/02/05 02:25:00;;;;;;;0.05;0.05;;;;;;;-141.50;100.00;63355.56;5099436;28;20060;-78
2024/02/05 02:27:27;;;;;;;0.70;0.10;;;;;;;-141.50;100.00;63355.56;5099233;28;20210;-79
2024/02/05 02:29:54;;;;;;;0.10;0.00;;;;;;;-141.50;100.00;63355.56;5097589;28;20103;-81
2024/02/05 02:32:37;;;;;;;0.17;0.00;;;;;;;-141.50;100.00;63355.56;5116415;28;20048;-79
2024/02/05 02:35:12;;;;;;;0.00;0.00;;;;;;;-141.50;100.00;63355.56;5095175;28;20060;-77
2024/02/05 02:37:45;;;;;;;0.08;0.00;;;;;;;-141.50;100.00;63355.56;5090927;28;20510;-78
2024/02/05 02:40:14;;;;;;;2.22;0.10;;;;;;;-141.50;100.00;63355.56;5063550;28;20049;-77
2024/02/05 02:42:43;;;;;;;0.00;0.00;;;;;;;-141.50;100.00;63355.56;5089813;28;20143;-78
2024/02/05 02:45:12;;;;;;;0.08;0.03;;;;;;;-141.50;100.00;63355.56;5092269;28;20131;-79
2024/02/05 02:47:41;;;;;;;0.00;0.00;;;;;;;-141.50;100.00;63355.56;5116197;28;20046;-79
2024/02/05 02:50:08;;;;;;;0.00;0.00;;;;;;;-141.50;100.00;63355.56;5116793;28;20059;-80
2024/02/05 02:52:35;;;;;;;0.25;0.10;;;;;;;-141.50;100.00;63355.56;5116919;28;20048;-78
2024/02/05 02:55:02;;;;;;;1.58;0.10;;;;;;;-141.50;100.00;63355.56;5119831;28;20048;-80
2024/02/05 02:57:29;;;;;;;0.10;0.10;;;;;;;-141.50;100.00;63355.56;5101855;28;20045;-80
2024/02/05 02:59:56;;;;;;;0.00;0.00;;;;;;;-141.50;100.00;63355.56;5099361;28;20051;-80
2024/02/05 03:02:24;;;;;;;0.00;0.00;;;;;;;-141.50;100.00;63355.56;5102264;28;20070;-79
2024/02/05 03:04:54;;;;;;;0.00;0.00;;;;;;;-141.50;100.00;63355.56;5102317;28;20039;-79
2024/02/05 03:07:21;;;;;;;0.00;0.00;;;;;;;-141.50;100.00;63355.56;5113663;28;20059;-77
2024/02/05 03:09:48;;;;;;;0.28;0.10;;;;;;;-141.50;100.00;63355.56;5121088;28;20048;-80
2024/02/05 03:12:15;;;;;;;0.10;0.08;;;;;;;-141.50;100.00;63355.56;5086163;28;20063;-79
2024/02/05 03:14:42;;;;;;;1.13;0.10;;;;;;;-141.50;100.00;63355.56;5112116;28;20044;-78
2024/02/05 03:17:08;;;;;;;0.17;0.10;;;;;;;-141.50;100.00;63355.56;5116851;28;20039;-80
2024/02/05 03:19:35;;;;;;;0.10;0.10;;;;;;;-141.50;100.00;63355.56;5117128;28;20046;-78
2024/02/05 03:22:04;;;;;;;0.28;0.10;;;;;;;-141.50;100.00;63355.56;5107248;28;20043;-80
2024/02/05 03:24:31;;;;;;;0.03;0.03;;;;;;;-141.50;100.00;63355.56;5115145;28;20072;-79
2024/02/05 03:26:59;;;;;;;0.10;0.10;;;;;;;-141.50;100.00;63355.56;5083980;28;20069;-78
2024/02/05 03:29:26;;;;;;;0.00;0.00;;;;;;;-141.50;100.00;63355.56;5080219;28;20064;-79
2024/02/05 03:31:55;;;;;;;1.80;0.10;;;;;;;-141.50;100.00;63355.56;5086778;28;20414;-78
2024/02/05 03:34:22;;;;;;;0.00;0.00;;;;;;;-141.50;100.00;63355.56;5096320;28;20105;-79
2024/02/05 03:36:52;;;;;;;0.10;0.10;;;;;;;-141.50;100.00;63355.56;5076040;28;20051;-77
2024/02/05 03:39:18;;;;;;;0.65;0.10;;;;;;;-141.50;100.00;63355.56;5106819;28;20064;-80
2024/02/05 03:41:45;;;;;;;0.03;0.00;;;;;;;-141.50;100.00;63355.56;5085888;28;20039;-78
2024/02/05 03:44:12;;;;;;;0.85;0.20;;;;;;;-141.50;100.00;63355.56;5123257;28;20043;-79
2024/02/05 03:46:41;;;;;;;0.10;0.08;;;;;;;-141.50;100.00;63355.56;5113610;27;20065;-80
2024/02/05 03:49:08;;;;;;;0.13;0.10;;;;;;;-141.50;100.00;63355.56;5117981;28;20046;-77
2024/02/05 03:51:35;;;;;;;0.10;0.10;;;;;;;-141.50;100.00;63355.56;5120897;28;20344;-80
2024/02/05 03:54:04;;;;;;;0.15;0.10;;;;;;;-141.50;100.00;63355.56;5103093;28;20109;-78
2024/02/05 03:56:34;;;;;;;0.28;0.15;;;;;;;-141.50;100.00;63355.56;5121319;28;20085;-77
2024/02/05 03:59:03;;;;;;;0.08;0.05;;;;;;;-141.50;100.00;63355.56;5108701;28;20620;-78
2024/02/05 04:01:30;;;;;;;2.72;0.17;;;;;;;-141.50;100.00;63355.56;5109595;28;20064;-78
2024/02/05 04:03:57;;;;;;;0.28;0.17;;;;;;;-141.50;100.00;63355.56;5097648;28;20055;-79
2024/02/05 04:06:24;;;;;;;1.08;0.17;;;;;;;-141.50;100.00;63355.56;5111302;28;20066;-79
2024/02/05 04:08:51;;;;;;;1.85;0.13;;;;;;;-141.50;100.00;63355.56;5102475;28;20077;-77
2024/02/05 04:11:17;;;;;;;0.22;0.10;;;;;;;-141.50;100.00;63355.56;5115111;28;20256;-79
2024/02/05 04:13:51;;;;;;;0.30;0.20;;;;;;;-141.50;100.00;63355.56;5103472;28;20056;-78
2024/02/05 04:16:18;;;;;;;0.15;0.15;;;;;;;-141.50;100.00;63355.56;5120221;28;20066;-79
2024/02/05 04:18:45;;;;;;;0.40;0.15;;;;;;;-141.50;100.00;63355.56;5102302;28;20048;-79
2024/02/05 04:21:12;;;;;;;0.10;0.10;;;;;;;-141.50;100.00;63355.56;5118278;28;20139;-78
2024/02/05 04:23:38;;;;;;;2.67;0.30;;;;;;;-141.50;100.00;63355.56;5116256;28;20482;-77
2024/02/05 04:26:16;;;;;;;0.25;0.13;;;;;;;-141.50;100.00;63355.56;5096188;28;20059;-80
2024/02/05 04:28:43;;;;;;;0.75;0.30;;;;;;;-141.50;100.00;63355.56;5120946;28;20234;-81
2024/02/05 04:31:10;;;;;;;0.98;0.30;;;;;;;-141.50;100.00;63355.56;5113881;28;20116;-80
2024/02/05 04:33:37;;;;;;;0.10;0.10;;;;;;;-141.50;100.00;63355.56;5108915;28;20040;-81
2024/02/05 04:36:09;;;;;;;1.92;0.30;;;;;;;-141.50;100.00;63355.56;5076855;28;20066;-79
2024/02/05 04:38:36;;;;;;;2.80;0.20;;;;;;;-141.50;100.00;63355.56;5113328;28;20049;-79
2024/02/05 04:41:03;;;;;;;0.73;0.20;;;;;;;-141.50;100.00;63355.56;5116183;28;20105;-79
2024/02/05 04:43:30;;;;;;;1.67;0.20;;;;;;;-141.50;100.00;63355.56;5115941;28;20035;-78
2024/02/05 04:45:56;;;;;;;0.68;0.20;;;;;;;-141.50;100.00;63355.56;5089524;28;20052;-79
2024/02/05 04:48:23;;;;;;;0.10;0.10;;;;;;;-141.50;100.00;63355.56;5097617;28;20060;-80
2024/02/05 04:50:50;;;;;;;0.28;0.20;;;;;;;-141.50;100.00;63355.56;5118294;28;20062;-79
2024/02/05 04:53:17;;;;;;;0.20;0.20;;;;;;;-141.50;100.00;63355.56;5116635;28;20047;-79
2024/02/05 04:55:47;;;;;;;0.90;0.10;;;;;;;-141.50;100.00;63355.56;5097886;28;20663;-80
2024/02/05 04:58:13;;;;;;;0.57;0.20;;;;;;;-141.50;100.00;63355.56;5116370;28;20052;-81
2024/02/05 05:00:41;;;;;;;0.52;0.20;;;;;;;-141.50;100.00;63355.56;5114534;28;20048;-78
2024/02/05 05:03:08;;;;;;;1.08;0.20;;;;;;;-141.50;100.00;63355.56;5109418;28;20119;-80
2024/02/05 05:05:34;;;;;;;3.30;0.30;;;;;;;-141.50;100.00;63355.56;5116570;28;20040;-81
2024/02/05 05:08:01;;;;;;;0.35;0.20;;;;;;;-141.50;100.00;63355.56;5110563;28;20060;-79
2024/02/05 05:10:28;;;;;;;0.63;0.20;;;;;;;-141.50;100.00;63355.56;5097776;28;20093;-81
2024/02/05 05:12:55;;;;;;;0.47;0.30;;;;;;;-141.50;100.00;63355.56;5115342;28;20101;-80
2024/02/05 05:15:21;;;;;;;1.13;0.22;;;;;;;-141.50;100.00;63355.56;5096166;28;20055;-79
2024/02/05 05:17:48;;;;;;;2.50;0.20;;;;;;;-141.50;100.00;63355.56;5115715;28;20108;-80
2024/02/05 05:20:15;;;;;;;1.42;0.30;;;;;;;-141.50;100.00;63355.56;5077836;28;20056;-81
2024/02/05 05:22:42;;;;;;;0.50;0.30;;;;;;;-141.50;100.00;63355.56;5113944;28;20699;-79
2024/02/05 05:25:09;;;;;;;1.15;0.30;;;;;;;-141.50;100.00;63355.56;5116624;28;20058;-80
2024/02/05 05:27:35;;;;;;;0.55;0.30;;;;;;;-141.50;100.00;63355.56;5115441;28;20145;-79
2024/02/05 05:30:02;;;;;;;0.45;0.30;;;;;;;-141.50;100.00;63355.56;5085555;28;20143;-80
2024/02/05 05:32:29;;;;;;;0.30;0.10;;;;;;;-141.50;100.00;63355.56;5088322;28;20126;-79
2024/02/05 05:34:59;;;;;;;0.50;0.30;;;;;;;-141.50;100.00;63355.56;5097616;28;20056;-80
2024/02/05 05:37:26;;;;;;;1.52;0.40;;;;;;;-141.50;100.00;63355.56;5096533;28;20055;-80
2024/02/05 05:39:53;;;;;;;2.75;0.40;;;;;;;-141.50;100.00;63355.56;5101897;28;20078;-79
2024/02/05 05:42:20;;;;;;;2.97;0.40;;;;;;;-141.50;100.00;63355.56;5121177;28;20201;-81
2024/02/05 05:44:47;;;;;;;0.88;0.30;;;;;;;-141.50;100.00;63355.56;5117400;28;20165;-82
2024/02/05 05:47:16;;;;;;;1.20;0.30;;;;;;;-141.50;100.00;63355.56;5121074;28;20077;-79
2024/02/05 05:49:43;;;;;;;0.85;0.40;;;;;;;-141.50;100.00;63355.56;5098759;28;20044;-81
2024/02/05 05:52:10;;;;;;;3.00;0.30;;;;;;;-141.50;100.00;63355.56;5119170;28;20059;-80
2024/02/05 05:54:37;;;;;;;0.40;0.30;;;;;;;-141.50;100.00;63355.56;5101202;28;20061;-81
2024/02/05 05:57:05;;;;;;;2.15;0.38;;;;;;;-141.50;100.00;63355.56;5119659;28;20119;-80
2024/02/05 05:59:31;;;;;;;0.60;0.30;;;;;;;-141.50;100.00;63355.56;5099224;28;20039;-81
2024/02/05 06:01:58;;;;;;;1.85;0.32;;;;;;;-141.50;100.00;63355.56;5101583;28;20073;-80
2024/02/05 06:04:25;;;;;;;1.50;0.85;;;;;;;-141.50;100.00;63355.56;5118215;28;21443;-80
2024/02/05 06:06:52;;;;;;;1.88;0.30;;;;;;;-141.50;100.00;63355.56;5118570;28;20059;-79
2024/02/05 06:09:20;;;;;;;0.85;0.30;;;;;;;-141.50;100.00;63355.56;5101263;28;20079;-80
2024/02/05 06:11:47;;;;;;;1.42;0.35;;;;;;;-141.50;100.00;63355.56;5115706;28;20135;-79
2024/02/05 06:14:14;;;;;;;0.65;0.25;;;;;;;-141.50;100.00;63355.56;5094155;28;20052;-79
2024/02/05 06:16:41;;;;;;;2.10;0.68;;;;;;;-141.50;100.00;63355.56;5114562;28;20467;-79
2024/02/05 06:19:07;;;;;;;3.33;0.50;;;;;;;-141.50;100.00;63355.56;5114144;28;20056;-81
2024/02/05 06:21:34;;;;;;;1.17;0.45;;;;;;;-141.50;100.00;63355.56;5114892;28;20110;-80
2024/02/05 06:24:01;;;;;;;1.98;0.43;;;;;;;-141.50;100.00;63355.56;5095905;28;20063;-81
2024/02/05 06:26:28;;;;;;;5.25;0.50;;;;;;;-141.50;100.00;63355.56;5110544;28;20075;-80
2024/02/05 06:28:55;;;;;;;0.82;0.40;;;;;;;-141.50;100.00;63355.56;5114806;28;20048;-80
2024/02/05 06:31:21;;;;;;;3.30;0.73;;;;;;;-141.50;100.00;63355.56;5088747;28;20047;-80
2024/02/05 06:33:48;;;;;;;2.28;0.70;;;;;;;-141.50;100.00;63355.56;5110819;28;20043;-80
2024/02/05 06:36:15;;;;;;;3.65;0.70;;;;;;;-141.50;100.00;63355.56;5094197;28;20509;-80
2024/02/05 06:38:42;;;;;;;3.40;0.50;;;;;;;-141.50;100.00;63355.56;5094109;28;20043;-79
2024/02/05 06:41:11;;;;;;;2.30;0.65;;;;;;;-141.50;100.00;63355.56;5110043;28;20056;-79
2024/02/05 06:43:39;;;;;;;3.17;1.00;;;;;;;-141.50;100.00;63355.56;5111480;28;20077;-79
2024/02/05 06:46:06;;;;;;;1.52;0.70;;;;;;;-141.50;100.00;63355.56;5093921;28;20471;-79
2024/02/05 06:48:36;;;;;;;3.33;0.57;;;;;;;-141.50;100.00;63355.56;5093326;28;20050;-78
2024/02/05 06:51:03;;;;;;;4.90;0.77;;;;;;;-141.50;100.00;63355.56;5095044;28;20062;-80
2024/02/05 06:53:30;;;;;;;2.17;0.77;;;;;;;-141.50;100.00;63355.56;5084004;28;20100;-79
2024/02/05 06:55:57;;;;;;;2.85;0.90;;;;;;;-141.50;100.00;63355.56;5095381;28;20051;-80
2024/02/05 06:58:24;;;;;;;5.28;0.80;;;;;;;-141.50;100.00;63355.56;5115825;28;20081;-81
2024/02/05 07:00:51;;;;;;;8.38;1.27;;;;;;;-141.50;100.00;63355.56;5119853;28;20040;-79
2024/02/05 07:03:19;;;;;;;2.83;0.70;;;;;;;-141.50;100.00;63355.56;5100537;28;20517;-80
2024/02/05 07:05:46;;;;;;;3.33;1.08;;;;;;;-141.50;100.00;63355.56;5121868;28;20096;-80
2024/02/05 07:08:13;;;;;;;6.20;0.90;;;;;;;-141.50;100.00;63355.56;5105531;28;20055;-80
2024/02/05 07:10:40;;;;;;;5.72;0.95;;;;;;;-141.50;100.00;63355.56;5098698;27;20048;-78
2024/02/05 07:13:06;;;;;;;1.95;0.80;;;;;;;-141.50;100.00;63355.56;5099653;28;20369;-79
2024/02/05 07:15:34;;;;;;;3.95;0.70;;;;;;;-141.50;100.00;63355.56;5092057;27;20039;-78
2024/02/05 07:18:01;;;;;;;5.18;1.33;;;;;;;-141.50;100.00;63355.56;5114819;28;20044;-80
2024/02/05 07:20:28;;;;;;;2.08;0.88;;;;;;;-141.50;100.00;63355.56;5100318;28;20052;-79
2024/02/05 07:22:54;;;;;;;3.63;0.80;;;;;;;-141.50;100.00;63355.56;5108629;28;20503;-80
2024/02/05 07:25:21;;;;;;;2.90;0.93;;;;;;;-141.50;100.00;63355.56;5119434;28;20063;-79
2024/02/05 07:27:48;;;;;;;4.88;1.10;;;;;;;-141.50;100.00;63355.56;5108012;28;20051;-79
2024/02/05 07:30:15;;;;;;;8.88;1.33;;;;;;;-141.50;100.00;63355.56;5101858;28;20917;-79
2024/02/05 07:32:42;;;;;;;4.25;1.50;;;;;;;-141.50;100.00;63355.56;5104003;28;20051;-79
2024/02/05 07:35:09;;;;;;;3.50;1.20;;;;;;;-141.50;100.00;63355.56;5119701;27;20075;-79
2024/02/05 07:37:37;;;;;;;5.53;1.00;;;;;;;-141.50;100.00;63355.56;5109371;28;20047;-78
2024/02/05 07:40:05;;;;;;;3.58;0.90;;;;;;;-141.50;100.00;63355.56;5119589;28;20055;-79
2024/02/05 07:42:31;;;;;;;3.17;0.80;;;;;;;-141.50;100.00;63355.56;5118023;28;20050;-78
2024/02/05 07:44:58;;;;;;;6.22;1.10;;;;;;;-141.50;100.00;63355.56;5124903;27;20067;-80
2024/02/05 07:47:26;;;;;;;5.88;0.90;;;;;;;-141.50;100.00;63355.56;5083462;28;20043;-79
2024/02/05 07:49:53;;;;;;;5.57;0.98;;;;;;;-141.50;100.00;63355.56;5106409;27;20042;-80
2024/02/05 07:52:21;;;;;;;4.03;1.02;;;;;;;-141.50;100.00;63355.56;5096780;28;20079;-79
2024/02/05 07:54:47;;;;;;;2.15;0.80;;;;;;;-141.50;100.00;63355.56;5089512;28;20745;-80
2024/02/05 07:57:14;;;;;;;5.25;1.00;;;;;;;-141.50;100.00;63355.56;5107097;28;20472;-78
2024/02/05 07:59:41;;;;;;;2.75;0.93;;;;;;;-141.50;100.00;63355.56;5110900;27;20070;-80
2024/02/05 08:02:08;;;;;;;5.15;0.98;;;;;;;-141.50;100.00;63355.56;5108603;27;20060;-79
2024/02/05 08:04:37;;;;;;;5.88;1.02;;;;;;;-141.50;100.00;63355.56;5106147;28;20081;-80
2024/02/05 08:07:04;;;;;;;4.82;1.00;;;;;;;-141.50;100.00;63355.56;5099111;28;20059;-80
2024/02/05 08:09:32;;;;;;;2.38;0.80;;;;;;;-141.50;100.00;63355.56;5114313;28;20103;-80
2024/02/05 08:12:02;;;;;;;5.72;1.20;;;;;;;-141.50;100.00;63355.56;5099985;28;20070;-80
2024/02/05 08:14:28;;;;;;;3.72;1.30;;;;;;;-141.50;100.00;63355.56;5097715;28;20483;-80
2024/02/05 08:16:55;;;;;;;2.92;0.85;;;;;;;-141.50;100.00;63355.56;5117293;27;20047;-80
2024/02/05 08:19:22;;;;;;;7.15;0.80;;;;;;;-141.50;100.00;63355.56;5108202;28;20047;-78
2024/02/05 08:21:49;;;;;;;6.38;1.38;;;;;;;-141.50;100.00;63355.56;5117658;27;20043;-78
2024/02/05 08:24:17;;;;;;;7.38;0.80;;;;;;;-141.50;100.00;63355.56;5101029;28;20101;-79
2024/02/05 08:26:44;;;;;;;3.50;1.15;;;;;;;-141.50;100.00;63355.56;5098393;28;20081;-79
2024/02/05 08:29:10;;;;;;;4.60;0.80;;;;;;;-141.50;100.00;63355.56;5087868;28;20140;-79
2024/02/05 08:31:37;;;;;;;3.50;0.98;;;;;;;-141.50;100.00;63355.56;5072792;28;20043;-79
2024/02/05 08:34:04;;;;;;;7.45;0.90;;;;;;;-141.50;100.00;63355.56;5103444;28;20549;-80
2024/02/05 08:36:32;;;;;;;6.00;0.98;;;;;;;-141.50;100.00;63355.56;5120812;27;20074;-80
2024/02/05 08:38:59;;;;;;;4.07;0.95;;;;;;;-141.50;100.00;63355.56;5098030;28;20047;-80
2024/02/05 08:41:26;;;;;;;3.88;0.85;;;;;;;-141.50;100.00;63355.56;5098325;28;20823;-80
2024/02/05 08:43:52;;;;;;;4.03;0.98;;;;;;;-141.50;100.00;63355.56;5088638;28;20040;-78
2024/02/05 08:46:19;;;;;;;5.70;1.20;;;;;;;-141.50;100.00;63355.56;5120970;27;20051;-79
2024/02/05 08:48:46;;;;;;;6.45;1.30;;;;;;;-141.50;100.00;63355.56;5082312;28;20048;-78
2024/02/05 08:51:13;;;;;;;4.68;1.00;;;;;;;-141.50;100.00;63355.56;5112210;27;20136;-79
2024/02/05 08:53:40;;;;;;;3.30;0.93;;;;;;;-141.50;100.00;63355.56;5109572;28;20040;-79
2024/02/05 08:56:08;;;;;;;3.58;0.90;;;;;;;-141.50;100.00;63355.56;5087568;28;20060;-80
2024/02/05 08:58:34;;;;;;;4.35;1.00;;;;;;;-141.50;100.00;63355.56;5105487;28;20069;-79
2024/02/05 09:01:01;;;;;;;4.72;1.13;;;;;;;-141.50;100.00;63355.56;5110083;28;20055;-78
2024/02/05 09:03:28;;;;;;;5.43;1.15;;;;;;;-141.50;100.00;63355.56;5100234;28;20077;-79
2024/02/05 09:05:55;;;;;;;6.18;1.20;;;;;;;-141.50;100.00;63355.56;5111355;27;20051;-80
2024/02/05 09:08:22;;;;;;;4.38;1.05;;;;;;;-141.50;100.00;63355.56;5118863;28;20092;-79
2024/02/05 09:10:49;;;;;;;6.28;1.10;;;;;;;-141.50;100.00;63355.56;5102439;28;20813;-79
2024/02/05 09:13:16;;;;;;;8.30;1.10;;;;;;;-141.50;100.00;63355.56;5119797;28;20128;-80
2024/02/05 09:15:43;;;;;;;5.80;1.00;;;;;;;-141.50;100.00;63355.56;5116033;27;20124;-79
2024/02/05 09:18:10;;;;;;;8.82;1.35;;;;;;;-141.50;100.00;63355.56;5099116;28;20059;-79
2024/02/05 09:20:37;;;;;;;2.03;0.90;;;;;;;-141.50;100.00;63355.56;5090831;28;20167;-80
2024/02/05 09:23:05;;;;;;;7.80;1.20;;;;;;;-141.50;100.00;63355.56;5090206;28;20315;-79
2024/02/05 09:25:32;;;;;;;4.38;1.15;;;;;;;-141.50;100.00;63355.56;5114296;27;20051;-80
2024/02/05 09:27:58;;;;;;;4.32;1.10;;;;;;;-141.50;100.00;63355.56;5112912;28;20043;-80
2024/02/05 09:30:25;;;;;;;6.07;1.15;;;;;;;-141.50;100.00;63355.56;5112791;27;20043;-79
2024/02/05 09:32:52;;;;;;;5.45;1.35;;;;;;;-141.50;100.00;63355.56;5116460;28;20058;-80
2024/02/05 09:35:19;;;;;;;8.40;1.40;;;;;;;-141.50;100.00;63355.56;5098891;28;20056;-80
2024/02/05 09:37:46;;;;;;;12.35;1.45;;;;;;;-141.50;100.00;63355.56;5115566;28;20055;-79
2024/02/05 09:40:13;;;;;;;6.25;1.17;;;;;;;-141.50;100.00;63355.56;5121195;27;20075;-79
2024/02/05 09:42:41;;;;;;;7.47;1.50;;;;;;;-141.50;100.00;63355.56;5101002;28;20268;-80
2024/02/05 09:45:11;;;;;;;12.27;1.98;;;;;;;-141.50;100.00;63355.56;5115429;28;20154;-79
2024/02/05 09:47:41;;;;;;;5.28;1.65;;;;;;;-141.50;100.00;63355.56;5114703;28;20044;-79
2024/02/05 09:50:11;;;;;;;6.35;1.33;;;;;;;-141.50;100.00;63355.56;5094977;28;20233;-79
2024/02/05 09:52:42;;;;;;;5.32;1.15;;;;;;;-141.50;100.00;63355.56;5115095;27;20103;-80
2024/02/05 09:55:12;;;;;;;10.05;1.40;;;;;;;-141.50;100.00;63355.56;5094893;28;20055;-78
2024/02/05 09:57:41;;;;;;;8.55;1.42;;;;;;;-141.50;100.00;63355.56;5108572;28;20306;-79
2024/02/05 10:00:12;;;;;;;10.93;1.27;;;;;;;-141.50;100.00;63355.56;5113382;28;20047;-81
2024/02/05 10:02:39;;;;;;;8.40;1.48;;;;;;;-141.50;100.00;63355.56;5095347;28;20040;-79
2024/02/05 10:05:16;;;;;;;7.72;1.63;;;;;;;-141.50;100.00;63355.56;5070018;28;20058;-79
2024/02/05 10:07:47;;;;;;;7.63;1.33;;;;;;;-141.50;100.00;63355.56;5106932;28;20059;-79
2024/02/05 10:10:15;;;;;;;10.25;1.50;;;;;;;-141.50;100.00;63355.56;5088130;28;20514;-79
2024/02/05 10:12:43;;;;;;;12.45;1.75;;;;;;;-141.50;100.00;63355.56;5110467;28;20048;-79
2024/02/05 10:15:11;;;;;;;7.82;1.55;;;;;;;-141.50;100.00;63355.56;5109417;28;20059;-80
2024/02/05 10:17:38;;;;;;;9.10;1.33;;;;;;;-141.50;100.00;63355.56;5092857;28;20047;-80
2024/02/05 10:20:09;;;;;;;8.43;1.65;;;;;;;-141.50;100.00;63355.56;5118290;28;20036;-79
2024/02/05 10:22:44;;;;;;;11.32;2.22;;;;;;;-141.50;100.00;63355.56;5108988;28;20100;-80
2024/02/05 10:25:13;;;;;;;8.40;1.55;;;;;;;-141.50;100.00;63355.56;5094398;28;20056;-80
2024/02/05 10:27:42;;;;;;;8.60;1.52;;;;;;;-141.50;100.00;63355.56;5094887;28;20051;-79
2024/02/05 10:30:09;;;;;;;9.00;1.80;;;;;;;-141.50;100.00;63355.56;5125165;28;20048;-81
2024/02/05 10:32:37;;;;;;;5.32;1.75;;;;;;;-141.50;100.00;63355.56;5107685;28;20048;-79
2024/02/05 10:35:06;;;;;;;5.60;1.35;;;;;;;-141.50;100.00;63355.56;5113742;28;20052;-80
2024/02/05 10:37:33;;;;;;;9.18;1.65;;;;;;;-141.50;100.00;63355.56;5106355;28;20138;-80
2024/02/05 10:40:05;;;;;;;8.80;1.27;;;;;;;-141.50;100.00;63355.56;5107222;28;20836;-79
2024/02/05 10:42:33;;;;;;;6.50;1.63;;;;;;;-141.50;100.00;63355.56;5102682;28;20065;-78
2024/02/05 10:45:03;;;;;;;6.45;1.25;;;;;;;-141.50;100.00;63355.56;5113393;28;20047;-80
2024/02/05 10:47:30;;;;;;;9.02;1.95;;;;;;;-141.50;100.00;63355.56;5108833;28;20554;-79
2024/02/05 10:49:57;;;;;;;5.07;1.10;;;;;;;-141.50;100.00;63355.56;5097175;28;20059;-79
2024/02/05 10:52:24;;;;;;;4.40;1.48;;;;;;;-141.50;100.00;63355.56;5117188;28;20142;-80
2024/02/05 10:54:52;;;;;;;6.82;1.20;;;;;;;-141.50;100.00;63355.56;5111114;28;20079;-81
2024/02/05 10:57:23;;;;;;;10.02;1.60;;;;;;;-141.50;100.00;63355.56;5115663;28;20078;-80
2024/02/05 10:59:51;;;;;;;8.68;1.80;;;;;;;-141.50;100.00;63355.56;5114837;28;20073;-78
2024/02/05 11:02:47;;;;;;;9.13;1.50;;;;;;;-141.50;100.00;63355.56;5091266;28;20124;-79
2024/02/05 11:05:15;;;;;;;9.77;1.75;;;;;;;-141.50;100.00;63355.56;5102849;28;20831;-80
2024/02/05 11:07:50;;;;;;;10.75;1.30;;;;;;;-141.50;100.00;63355.56;5111534;28;20047;-79
2024/02/05 11:10:24;;;;;;;5.32;1.30;;;;;;;-141.50;100.00;63355.56;5092579;28;20117;-79
2024/02/05 11:13:06;;;;;;;6.93;1.45;;;;;;;-141.50;100.00;63355.56;5083366;28;20987;-79